Time;durP1;ratioP1;P1;durP2;ratioP2;P2;SDS_P1;SDS_P2;PMS_P1;PMS_P2;Temp;Humidity;BMP_temperature;BMP_pressure;BME280_temperature;BME280_humidity;BME280_pressure;Samples;Min_cycle;Max_cycle;Signal;HPM_P1;HPM_P2
2022/11/03 00:01:37;;;;;;;;;;;10.10;99.90;;;;;;2616744;54;19935;-71
2022/11/03 00:04:08;;;;;;;;;;;10.00;99.90;;;;;;2617020;54;19951;-71
2022/11/03 00:06:40;;;;;;;;;;;10.00;99.90;;;;;;2617375;54;19991;-71
2022/11/03 00:09:11;;;;;;;;;;;10.00;99.90;;;;;;2616851;54;19946;-72
2022/11/03 00:11:41;;;;;;;;;;;10.00;99.90;;;;;;2616555;54;19967;-71
2022/11/03 00:14:11;;;;;;;;;;;10.00;99.90;;;;;;2615847;46;19971;-72
2022/11/03 00:16:41;;;;;;;;;;;10.00;99.90;;;;;;2615978;54;19997;-70
2022/11/03 00:19:12;;;;;;;;;;;9.90;99.90;;;;;;2617619;52;20673;-71
2022/11/03 00:21:44;;;;;;;;;;;10.00;99.90;;;;;;2619260;47;19953;-71
2022/11/03 00:24:14;;;;;;;;;;;10.00;99.90;;;;;;2619856;54;19950;-71
2022/11/03 00:26:44;;;;;;;;;;;10.00;99.90;;;;;;2617907;54;19994;-73
2022/11/03 00:29:14;;;;;;;;;;;9.90;99.90;;;;;;2616562;47;19950;-71
2022/11/03 00:31:45;;;;;;;;;;;9.90;99.90;;;;;;2616115;39;20044;-71
2022/11/03 00:34:14;;;;;;;;;;;9.90;99.90;;;;;;2616496;54;20491;-71
2022/11/03 00:36:46;;;;;;;;;;;9.90;99.90;;;;;;2616410;39;20369;-70
2022/11/03 00:39:16;;;;;;;;;;;9.90;99.90;;;;;;2616345;54;19946;-71
2022/11/03 00:41:45;;;;;;;;;;;9.90;99.90;;;;;;2616206;47;19946;-70
2022/11/03 00:44:15;;;;;;;;;;;9.90;99.90;;;;;;2619223;54;19950;-71
2022/11/03 00:46:44;;;;;;;;;;;9.90;99.90;;;;;;2616262;54;19985;-73
2022/11/03 00:49:14;;;;;;;;;;;9.90;99.90;;;;;;2616613;47;19958;-71
2022/11/03 00:51:43;;;;;;;;;;;9.80;99.90;;;;;;2616300;54;19971;-71
2022/11/03 00:54:15;;;;;;;;;;;9.80;99.90;;;;;;2615878;54;20059;-73
2022/11/03 00:56:45;;;;;;;;;;;9.80;99.90;;;;;;2616668;47;19950;-70
2022/11/03 00:59:15;;;;;;;;;;;9.80;99.90;;;;;;2618009;54;20401;-71
2022/11/03 01:01:45;;;;;;;;;;;9.80;99.90;;;;;;2623438;54;20469;-71
2022/11/03 01:07:00;;;;;;;;;;;9.70;99.90;;;;;;2623620;51;20572;-70
2022/11/03 01:09:32;;;;;;;;;;;9.70;99.90;;;;;;2620196;54;20461;-72
2022/11/03 01:12:03;;;;;;;;;;;9.70;99.90;;;;;;2616405;47;19954;-71
2022/11/03 01:14:34;;;;;;;;;;;9.60;99.90;;;;;;2616331;47;19950;-72
2022/11/03 01:17:03;;;;;;;;;;;9.60;99.90;;;;;;2615871;39;20026;-71
2022/11/03 01:19:33;;;;;;;;;;;9.60;99.90;;;;;;2618410;54;19953;-72
2022/11/03 01:22:02;;;;;;;;;;;9.60;99.90;;;;;;2617480;47;19950;-71
2022/11/03 01:24:42;;;;;;;;;;;9.50;99.90;;;;;;2616024;54;19969;-71
2022/11/03 01:27:12;;;;;;;;;;;9.60;99.90;;;;;;2616048;54;19970;-71
2022/11/03 01:29:41;;;;;;;;;;;9.60;99.90;;;;;;2616278;54;19947;-71
2022/11/03 01:32:11;;;;;;;;;;;9.50;99.90;;;;;;2615580;54;20371;-70
2022/11/03 01:34:41;;;;;;;;;;;9.60;99.90;;;;;;2616063;47;20033;-71
2022/11/03 01:37:10;;;;;;;;;;;9.50;99.90;;;;;;2619682;54;19962;-71
2022/11/03 01:39:42;;;;;;;;;;;9.50;99.90;;;;;;2619640;54;19970;-71
2022/11/03 01:42:13;;;;;;;;;;;9.50;99.90;;;;;;2616634;47;19958;-71
2022/11/03 01:44:44;;;;;;;;;;;9.50;99.90;;;;;;2616138;47;19955;-71
2022/11/03 01:47:16;;;;;;;;;;;9.40;99.90;;;;;;2615663;54;20078;-72
2022/11/03 01:49:48;;;;;;;;;;;9.40;99.90;;;;;;2620690;54;19993;-72
2022/11/03 01:52:21;;;;;;;;;;;9.40;99.90;;;;;;2625384;47;20372;-71
2022/11/03 01:54:56;;;;;;;;;;;9.40;99.90;;;;;;2624718;54;19947;-72
2022/11/03 01:57:27;;;;;;;;;;;9.40;99.90;;;;;;2625424;54;19947;-71
2022/11/03 01:59:57;;;;;;;;;;;9.40;99.90;;;;;;2623360;54;19970;-71
2022/11/03 02:02:27;;;;;;;;;;;9.40;99.90;;;;;;2623587;54;19962;-70
2022/11/03 02:04:58;;;;;;;;;;;8.90;99.90;;;;;;2618039;54;20493;-71
2022/11/03 02:07:30;;;;;;;;;;;9.30;99.90;;;;;;2616180;47;19993;-71
2022/11/03 02:10:02;;;;;;;;;;;9.30;99.90;;;;;;2614933;47;19997;-70
2022/11/03 02:12:32;;;;;;;;;;;9.30;99.90;;;;;;2616461;47;19986;-71
2022/11/03 02:15:04;;;;;;;;;;;9.30;99.90;;;;;;2615061;47;19960;-71
2022/11/03 02:17:34;;;;;;;;;;;9.30;99.90;;;;;;2617086;39;20519;-71
2022/11/03 02:20:07;;;;;;;;;;;9.30;99.90;;;;;;2620946;39;20140;-71
2022/11/03 02:22:48;;;;;;;;;;;9.20;99.90;;;;;;2625643;54;19952;-70
2022/11/03 02:25:21;;;;;;;;;;;9.20;99.90;;;;;;2617060;54;19954;-71
2022/11/03 02:27:53;;;;;;;;;;;9.50;99.90;;;;;;2618136;39;20393;-71
2022/11/03 02:30:23;;;;;;;;;;;9.20;99.90;;;;;;2618069;47;19954;-71
2022/11/03 02:32:57;;;;;;;;;;;9.30;99.90;;;;;;2620060;46;19951;-71
2022/11/03 02:35:30;;;;;;;;;;;9.20;99.90;;;;;;2616412;47;19989;-70
2022/11/03 02:38:01;;;;;;;;;;;9.10;99.90;;;;;;2620512;54;19951;-71
2022/11/03 02:40:33;;;;;;;;;;;9.20;99.90;;;;;;2620944;39;20680;-70
2022/11/03 02:43:05;;;;;;;;;;;9.10;99.90;;;;;;2618863;54;19970;-70
2022/11/03 02:45:35;;;;;;;;;;;9.10;99.90;;;;;;2621922;47;20041;-70
2022/11/03 02:48:06;;;;;;;;;;;9.10;99.90;;;;;;2620673;47;20065;-71
2022/11/03 02:50:36;;;;;;;;;;;9.10;99.90;;;;;;2619187;47;20449;-70
2022/11/03 02:53:05;;;;;;;;;;;9.10;99.90;;;;;;2617835;54;19964;-71
2022/11/03 02:55:38;;;;;;;;;;;9.00;99.90;;;;;;2618127;54;19947;-70
2022/11/03 02:58:15;;;;;;;;;;;9.00;99.90;;;;;;2616003;47;19977;-70
2022/11/03 03:00:47;;;;;;;;;;;9.10;99.90;;;;;;2616339;39;20242;-70
2022/11/03 03:03:19;;;;;;;;;;;9.10;99.90;;;;;;2619149;54;19958;-70
2022/11/03 03:05:50;;;;;;;;;;;9.10;99.90;;;;;;2616749;46;20461;-71
2022/11/03 03:08:21;;;;;;;;;;;9.00;99.90;;;;;;2615822;52;19997;-70
2022/11/03 03:10:50;;;;;;;;;;;9.00;99.90;;;;;;2617541;39;20334;-70
2022/11/03 03:13:24;;;;;;;;;;;8.90;99.90;;;;;;2617759;47;19990;-71
2022/11/03 03:15:59;;;;;;;;;;;9.00;99.90;;;;;;2616637;54;19982;-71
2022/11/03 03:18:30;;;;;;;;;;;9.00;99.90;;;;;;2616928;47;19950;-71
2022/11/03 03:21:03;;;;;;;;;;;9.00;99.90;;;;;;2616072;46;20022;-70
2022/11/03 03:23:35;;;;;;;;;;;9.00;99.90;;;;;;2616469;54;19946;-72
2022/11/03 03:26:06;;;;;;;;;;;9.00;99.90;;;;;;2621392;39;20354;-70
2022/11/03 03:28:41;;;;;;;;;;;9.00;99.90;;;;;;2620098;54;20457;-70
2022/11/03 03:31:12;;;;;;;;;;;8.90;99.90;;;;;;2623066;54;19939;-70
2022/11/03 03:33:42;;;;;;;;;;;9.00;99.90;;;;;;2624417;54;20032;-71
2022/11/03 03:36:17;;;;;;;;;;;9.00;99.90;;;;;;2625126;51;19947;-72
2022/11/03 03:38:49;;;;;;;;;;;8.90;99.90;;;;;;2618325;54;19951;-72
2022/11/03 03:41:20;;;;;;;;;;;8.90;99.90;;;;;;2620230;47;19955;-72
2022/11/03 03:43:54;;;;;;;;;;;8.90;99.90;;;;;;2620349;54;20521;-73
2022/11/03 03:46:24;;;;;;;;;;;7.40;99.90;;;;;;2617610;39;20385;-72
2022/11/03 03:48:54;;;;;;;;;;;8.90;99.90;;;;;;2617260;54;20046;-72
2022/11/03 03:51:25;;;;;;;;;;;9.00;99.90;;;;;;2615316;39;20341;-72
2022/11/03 03:53:55;;;;;;;;;;;8.90;99.90;;;;;;2615740;47;19954;-71
2022/11/03 03:56:28;;;;;;;;;;;8.90;99.90;;;;;;2615993;47;19958;-71
2022/11/03 03:59:00;;;;;;;;;;;8.90;99.90;;;;;;2615852;47;19950;-71
2022/11/03 04:01:30;;;;;;;;;;;8.90;99.90;;;;;;2617910;51;19950;-71
2022/11/03 04:04:00;;;;;;;;;;;8.90;99.90;;;;;;2619169;54;19947;-72
2022/11/03 04:06:29;;;;;;;;;;;8.90;99.90;;;;;;2615917;54;19997;-71
2022/11/03 04:08:59;;;;;;;;;;;8.90;99.90;;;;;;2615414;47;19985;-70
2022/11/03 04:22:28;;;;;;;;;;;8.80;99.90;;;;;;2615270;54;19988;-72
2022/11/03 04:24:59;;;;;;;;;;;8.80;99.90;;;;;;2616602;47;19943;-71
2022/11/03 04:27:30;;;;;;;;;;;8.80;99.90;;;;;;2615510;47;19954;-70
2022/11/03 04:30:07;;;;;;;;;;;9.30;99.90;;;;;;2616387;47;19962;-72
2022/11/03 04:32:37;;;;;;;;;;;8.80;99.90;;;;;;2615856;54;19973;-72
2022/11/03 04:35:15;;;;;;;;;;;8.80;99.90;;;;;;2616372;47;19970;-73
2022/11/03 04:37:44;;;;;;;;;;;8.80;99.90;;;;;;2621210;54;19950;-71
2022/11/03 04:40:17;;;;;;;;;;;8.70;99.90;;;;;;2623961;54;20629;-71
2022/11/03 04:42:48;;;;;;;;;;;8.70;99.90;;;;;;2618695;47;19951;-70
2022/11/03 04:45:23;;;;;;;;;;;8.70;99.90;;;;;;2615124;39;20355;-72
2022/11/03 04:47:53;;;;;;;;;;;8.60;99.90;;;;;;2615475;54;19978;-72
2022/11/03 04:50:23;;;;;;;;;;;8.60;99.90;;;;;;2615208;54;20046;-71
2022/11/03 04:52:55;;;;;;;;;;;8.60;99.90;;;;;;2617038;47;19947;-71
2022/11/03 04:55:25;;;;;;;;;;;8.80;99.90;;;;;;2617867;51;19963;-71
2022/11/03 04:57:58;;;;;;;;;;;8.60;99.90;;;;;;2617733;54;19954;-72
2022/11/03 05:00:30;;;;;;;;;;;8.70;99.90;;;;;;2615900;54;19966;-72
2022/11/03 05:03:00;;;;;;;;;;;8.70;99.90;;;;;;2618647;39;20374;-71
2022/11/03 05:05:29;;;;;;;;;;;8.70;99.90;;;;;;2618279;54;19938;-71
2022/11/03 05:07:59;;;;;;;;;;;8.70;99.90;;;;;;2619649;54;19958;-71
2022/11/03 05:10:30;;;;;;;;;;;8.80;99.90;;;;;;2623842;47;19942;-72
2022/11/03 05:13:01;;;;;;;;;;;8.60;99.90;;;;;;2623115;47;19989;-71
2022/11/03 05:15:36;;;;;;;;;;;8.60;99.90;;;;;;2621072;54;19949;-71
2022/11/03 05:18:14;;;;;;;;;;;8.60;99.90;;;;;;2617323;54;20047;-71
2022/11/03 05:20:45;;;;;;;;;;;8.60;99.90;;;;;;2617141;49;19984;-71
2022/11/03 05:23:15;;;;;;;;;;;8.70;99.90;;;;;;2617693;47;20050;-72
2022/11/03 05:25:46;;;;;;;;;;;8.60;99.90;;;;;;2617987;54;19997;-72
2022/11/03 05:28:20;;;;;;;;;;;8.60;99.90;;;;;;2618834;39;20373;-71
2022/11/03 05:30:52;;;;;;;;;;;8.60;99.90;;;;;;2617131;54;19951;-72
2022/11/03 05:33:23;;;;;;;;;;;8.60;99.90;;;;;;2618317;47;19959;-71
2022/11/03 05:35:53;;;;;;;;;;;8.60;99.90;;;;;;2619511;54;19951;-70
2022/11/03 05:38:23;;;;;;;;;;;8.60;99.90;;;;;;2618653;47;19950;-71
2022/11/03 05:40:54;;;;;;;;;;;8.60;99.90;;;;;;2618910;47;20013;-74
2022/11/03 05:43:23;;;;;;;;;;;8.60;99.90;;;;;;2619217;51;19951;-71
2022/11/03 05:45:57;;;;;;;;;;;8.60;99.90;;;;;;2619748;47;19977;-70
2022/11/03 05:48:32;;;;;;;;;;;9.90;99.90;;;;;;2621176;47;19985;-72
2022/11/03 05:51:02;;;;;;;;;;;8.60;99.90;;;;;;2622455;54;19994;-72
2022/11/03 05:53:32;;;;;;;;;;;8.60;99.90;;;;;;2623251;50;19947;-71
2022/11/03 05:56:03;;;;;;;;;;;8.60;99.90;;;;;;2620029;47;20441;-70
2022/11/03 05:58:35;;;;;;;;;;;8.60;99.90;;;;;;2618444;54;19951;-72
2022/11/03 06:01:12;;;;;;;;;;;8.60;99.90;;;;;;2621965;54;19974;-72
2022/11/03 06:03:42;;;;;;;;;;;8.60;99.90;;;;;;2624852;54;19953;-72
2022/11/03 06:06:15;;;;;;;;;;;8.60;99.90;;;;;;2625140;54;19993;-72
2022/11/03 06:08:44;;;;;;;;;;;8.60;99.90;;;;;;2626018;54;19974;-72
2022/11/03 06:11:21;;;;;;;;;;;8.60;99.90;;;;;;2626523;54;19942;-72
2022/11/03 06:13:50;;;;;;;;;;;8.60;99.90;;;;;;2617787;51;19966;-71
2022/11/03 06:16:32;;;;;;;;;;;8.60;99.90;;;;;;2618294;51;19993;-70
2022/11/03 06:19:03;;;;;;;;;;;8.50;99.90;;;;;;2620329;54;19993;-71
2022/11/03 06:21:32;;;;;;;;;;;7.90;99.90;;;;;;2619279;47;19958;-72
2022/11/03 06:24:02;;;;;;;;;;;8.50;99.90;;;;;;2617392;54;19994;-72
2022/11/03 06:26:32;;;;;;;;;;;8.50;99.90;;;;;;2617953;47;19986;-72
2022/11/03 06:29:01;;;;;;;;;;;8.60;99.90;;;;;;2617576;48;19954;-73
2022/11/03 06:31:34;;;;;;;;;;;8.60;99.90;;;;;;2620526;39;20048;-61
2022/11/03 06:34:04;;;;;;;;;;;8.60;99.90;;;;;;2621441;47;19946;-70
2022/11/03 06:36:36;;;;;;;;;;;8.60;99.90;;;;;;2622250;47;19966;-70
2022/11/03 06:39:11;;;;;;;;;;;8.60;99.90;;;;;;2624314;54;19947;-69
2022/11/03 06:41:43;;;;;;;;;;;8.60;99.90;;;;;;2623932;39;20257;-69
2022/11/03 06:44:20;;;;;;;;;;;8.60;99.90;;;;;;2622004;46;19950;-69
2022/11/03 06:46:52;;;;;;;;;;;8.60;99.90;;;;;;2617563;47;19970;-70
2022/11/03 06:49:30;;;;;;;;;;;8.60;99.90;;;;;;2616580;54;19946;-68
2022/11/03 06:52:00;;;;;;;;;;;8.70;99.90;;;;;;2617489;47;19994;-71
2022/11/03 06:54:30;;;;;;;;;;;8.70;99.90;;;;;;2618867;39;20366;-70
2022/11/03 06:57:00;;;;;;;;;;;8.70;99.90;;;;;;2617351;46;19973;-69
2022/11/03 06:59:30;;;;;;;;;;;8.80;99.90;;;;;;2616755;54;20002;-70
2022/11/03 07:02:02;;;;;;;;;;;8.80;99.90;;;;;;2617652;54;19998;-69
2022/11/03 07:04:32;;;;;;;;;;;8.80;99.90;;;;;;2619924;47;19953;-70
2022/11/03 07:07:04;;;;;;;;;;;8.80;99.90;;;;;;2617031;51;19943;-70
2022/11/03 07:09:33;;;;;;;;;;;8.80;99.90;;;;;;2620281;47;19938;-70
2022/11/03 07:12:03;;;;;;;;;;;8.80;99.90;;;;;;2619254;51;20473;-70
2022/11/03 07:14:33;;;;;;;;;;;8.80;99.90;;;;;;2618337;39;20385;-70
2022/11/03 07:17:07;;;;;;;;;;;8.90;99.90;;;;;;2617944;54;19970;-70
2022/11/03 07:19:38;;;;;;;;;;;8.90;99.90;;;;;;2617502;47;19989;-70
2022/11/03 07:22:11;;;;;;;;;;;9.00;99.90;;;;;;2616745;54;20027;-70
2022/11/03 07:24:41;;;;;;;;;;;8.90;99.90;;;;;;2616907;54;19990;-70
2022/11/03 07:27:16;;;;;;;;;;;9.00;99.90;;;;;;2616761;54;19946;-70
2022/11/03 07:29:47;;;;;;;;;;;9.10;99.90;;;;;;2616296;47;20018;-70
2022/11/03 07:32:20;;;;;;;;;;;9.10;99.90;;;;;;2616394;47;19954;-69
2022/11/03 07:34:50;;;;;;;;;;;9.10;99.90;;;;;;2623280;54;19951;-69
2022/11/03 07:37:21;;;;;;;;;;;9.10;99.90;;;;;;2623818;47;20453;-69
2022/11/03 07:39:51;;;;;;;;;;;9.20;99.90;;;;;;2615787;47;19947;-69
2022/11/03 07:42:22;;;;;;;;;;;9.20;99.90;;;;;;2617295;54;20042;-69
2022/11/03 07:44:51;;;;;;;;;;;9.20;99.90;;;;;;2616174;54;20078;-69
2022/11/03 07:47:25;;;;;;;;;;;9.20;99.90;;;;;;2616962;54;19961;-69
2022/11/03 07:49:55;;;;;;;;;;;9.30;99.90;;;;;;2615556;46;20023;-70
2022/11/03 07:52:26;;;;;;;;;;;9.40;99.90;;;;;;2616750;54;19967;-70
2022/11/03 07:54:57;;;;;;;;;;;9.50;99.90;;;;;;2617164;49;19954;-69
2022/11/03 07:57:29;;;;;;;;;;;9.60;99.90;;;;;;2615891;47;19939;-70
2022/11/03 08:00:03;;;;;;;;;;;9.60;99.90;;;;;;2619032;51;19989;-70
2022/11/03 08:02:44;;;;;;;;;;;9.70;99.90;;;;;;2623991;39;20344;-70
2022/11/03 08:05:14;;;;;;;;;;;9.70;99.90;;;;;;2616904;54;19941;-70
2022/11/03 08:07:44;;;;;;;;;;;9.80;99.90;;;;;;2614934;51;19947;-70
2022/11/03 08:10:13;;;;;;;;;;;9.80;99.90;;;;;;2616757;47;19954;-70
2022/11/03 08:12:43;;;;;;;;;;;9.90;99.90;;;;;;2615196;54;19964;-70
2022/11/03 08:15:14;;;;;;;;;;;9.90;99.90;;;;;;2616235;54;20059;-70
2022/11/03 08:17:46;;;;;;;;;;;9.90;99.90;;;;;;2616575;51;19989;-70
2022/11/03 08:20:21;;;;;;;;;;;10.00;99.90;;;;;;2620876;54;19958;-70
2022/11/03 08:22:51;;;;;;;;;;;10.10;99.90;;;;;;2623824;39;20342;-70
2022/11/03 08:25:40;;;;;;;;;;;10.10;99.90;;;;;;2623662;54;20516;-70
2022/11/03 08:28:10;;;;;;;;;;;10.20;99.90;;;;;;2616731;47;20021;-64
2022/11/03 08:30:40;;;;;;;;;;;10.30;99.90;;;;;;2616131;47;19954;-64
2022/11/03 08:33:12;;;;;;;;;;;10.30;99.90;;;;;;2617375;54;19951;-64
2022/11/03 08:35:41;;;;;;;;;;;10.30;99.90;;;;;;2616292;39;20101;-65
2022/11/03 08:38:11;;;;;;;;;;;10.40;99.90;;;;;;2615335;46;19958;-65
2022/11/03 08:40:40;;;;;;;;;;;10.50;99.90;;;;;;2616574;54;19953;-66
2022/11/03 08:43:10;;;;;;;;;;;10.50;99.90;;;;;;2616689;54;20005;-66
2022/11/03 08:45:39;;;;;;;;;;;10.60;99.90;;;;;;2617175;31;20402;-66
2022/11/03 08:48:11;;;;;;;;;;;10.60;99.90;;;;;;2619263;54;19954;-65
2022/11/03 08:50:41;;;;;;;;;;;10.70;99.90;;;;;;2624691;54;19938;-64
2022/11/03 08:53:11;;;;;;;;;;;10.80;99.90;;;;;;2618368;54;20051;-65
2022/11/03 08:55:40;;;;;;;;;;;10.90;99.90;;;;;;2615985;47;20600;-66
2022/11/03 08:58:10;;;;;;;;;;;10.90;99.90;;;;;;2615893;46;19955;-65
2022/11/03 09:00:39;;;;;;;;;;;11.00;99.90;;;;;;2616716;54;19969;-66
2022/11/03 09:03:12;;;;;;;;;;;11.00;99.90;;;;;;2616362;54;19989;-66
2022/11/03 09:05:41;;;;;;;;;;;11.10;99.90;;;;;;2616483;54;19955;-66
2022/11/03 09:08:11;;;;;;;;;;;11.20;99.90;;;;;;2615743;54;20526;-68
2022/11/03 09:11:00;;;;;;;;;;;11.20;99.90;;;;;;2617394;54;19942;-71
2022/11/03 09:13:30;;;;;;;;;;;11.30;99.90;;;;;;2618869;51;20541;-71
2022/11/03 09:16:00;;;;;;;;;;;11.30;99.90;;;;;;2626529;51;19947;-72
2022/11/03 09:18:32;;;;;;;;;;;11.30;99.90;;;;;;2625148;54;19957;-70
2022/11/03 09:21:02;;;;;;;;;;;11.40;99.90;;;;;;2622537;54;19946;-69
2022/11/03 09:23:32;;;;;;;;;;;11.50;99.90;;;;;;2620661;51;19959;-69
2022/11/03 09:26:01;;;;;;;;;;;11.50;99.90;;;;;;2621311;54;19990;-68
2022/11/03 09:28:31;;;;;;;;;;;11.60;99.90;;;;;;2622697;54;19947;-68
2022/11/03 09:31:00;;;;;;;;;;;11.70;99.90;;;;;;2617356;47;20508;-70
2022/11/03 09:33:32;;;;;;;;;;;11.70;99.90;;;;;;2616485;49;19970;-69
2022/11/03 09:36:02;;;;;;;;;;;11.80;99.90;;;;;;2616827;54;19997;-69
2022/11/03 09:38:31;;;;;;;;;;;11.70;99.90;;;;;;2616416;54;20034;-69
2022/11/03 09:41:01;;;;;;;;;;;11.70;99.90;;;;;;2617626;47;19977;-70
2022/11/03 09:43:42;;;;;;;;;;;11.70;99.90;;;;;;2618110;54;19951;-69
2022/11/03 09:46:11;;;;;;;;;;;11.80;99.90;;;;;;2620960;54;19978;-68
2022/11/03 09:48:44;;;;;;;;;;;11.90;99.90;;;;;;2617877;54;20061;-69
2022/11/03 09:51:16;;;;;;;;;;;12.90;99.90;;;;;;2617574;39;20409;-69
2022/11/03 09:53:45;;;;;;;;;;;12.00;99.90;;;;;;2617293;47;19962;-69
2022/11/03 09:56:15;;;;;;;;;;;12.10;99.90;;;;;;2616482;54;19942;-69
2022/11/03 09:58:45;;;;;;;;;;;12.20;99.90;;;;;;2619779;39;20338;-69
2022/11/03 10:01:22;;;;;;;;;;;12.30;99.90;;;;;;2625172;54;20717;-70
2022/11/03 10:03:57;;;;;;;;;;;12.40;99.90;;;;;;2618880;31;20641;-71
2022/11/03 10:06:27;;;;;;;;;;;12.40;99.90;;;;;;2617170;47;20457;-69
2022/11/03 10:08:56;;;;;;;;;;;12.50;99.90;;;;;;2617214;31;20430;-69
2022/11/03 10:11:26;;;;;;;;;;;12.60;99.90;;;;;;2617992;54;19977;-69
2022/11/03 10:13:57;;;;;;;;;;;12.60;99.90;;;;;;2616372;54;20034;-69
2022/11/03 10:16:27;;;;;;;;;;;12.70;99.90;;;;;;2617151;47;19989;-69
2022/11/03 10:18:59;;;;;;;;;;;12.70;99.90;;;;;;2618103;39;20388;-69
2022/11/03 10:21:32;;;;;;;;;;;12.80;99.90;;;;;;2618110;54;19938;-69
2022/11/03 10:24:02;;;;;;;;;;;13.00;99.90;;;;;;2620895;46;19950;-69
2022/11/03 10:26:43;;;;;;;;;;;13.10;99.90;;;;;;2617329;54;19993;-69
2022/11/03 10:29:18;;;;;;;;;;;13.10;99.90;;;;;;2616722;54;20023;-70
2022/11/03 10:32:29;;;;;;;;;;;13.00;99.90;;;;;;2616931;47;19963;-68
2022/11/03 10:35:02;;;;;;;;;;;13.10;99.90;;;;;;2617449;54;19998;-68
2022/11/03 10:37:31;;;;;;;;;;;13.10;99.90;;;;;;2616449;52;19946;-69
2022/11/03 10:40:01;;;;;;;;;;;13.10;99.90;;;;;;2616653;46;20059;-69
2022/11/03 10:42:31;;;;;;;;;;;13.10;99.90;;;;;;2617583;54;19950;-68
2022/11/03 10:45:12;;;;;;;;;;;13.10;99.90;;;;;;2616775;54;19939;-68
2022/11/03 10:47:41;;;;;;;;;;;13.00;99.90;;;;;;2616774;47;20449;-70
2022/11/03 10:50:21;;;;;;;;;;;13.00;99.90;;;;;;2617390;47;20034;-70
2022/11/03 10:52:52;;;;;;;;;;;13.00;99.90;;;;;;2622201;54;19993;-68
2022/11/03 10:55:22;;;;;;;;;;;13.00;99.90;;;;;;2622295;54;19946;-70
2022/11/03 10:57:54;;;;;;;;;;;13.00;99.90;;;;;;2621872;54;19942;-70
2022/11/03 11:00:24;;;;;;;;;;;13.00;99.90;;;;;;2622085;47;20007;-70
2022/11/03 11:02:57;;;;;;;;;;;12.90;99.90;;;;;;2622151;47;19970;-69
2022/11/03 11:05:29;;;;;;;;;;;13.00;99.90;;;;;;2616387;47;19950;-70
2022/11/03 11:08:01;;;;;;;;;;;12.90;99.90;;;;;;2621416;39;20252;-71
2022/11/03 11:10:32;;;;;;;;;;;13.00;99.90;;;;;;2626431;54;19946;-72
2022/11/03 11:13:20;;;;;;;;;;;13.00;99.90;;;;;;2617352;51;19950;-71
2022/11/03 11:15:50;;;;;;;;;;;13.00;99.90;;;;;;2615833;51;19977;-72
2022/11/03 11:18:35;;;;;;;;;;;13.00;99.90;;;;;;2615900;47;19969;-70
2022/11/03 11:21:27;;;;;;;;;;;13.00;99.90;;;;;;2617102;31;20461;-71
2022/11/03 11:24:03;;;;;;;;;;;13.00;99.90;;;;;;2615907;54;19977;-71
2022/11/03 11:26:33;;;;;;;;;;;13.00;99.90;;;;;;2617186;54;20059;-72
2022/11/03 11:29:19;;;;;;;;;;;13.00;99.90;;;;;;2616411;54;20005;-71
2022/11/03 11:31:48;;;;;;;;;;;13.00;99.90;;;;;;2617720;54;19975;-71
2022/11/03 11:34:33;;;;;;;;;;;12.90;99.90;;;;;;2619578;47;19999;-72
2022/11/03 11:37:17;;;;;;;;;;;13.00;99.90;;;;;;2617670;47;19943;-71
2022/11/03 11:39:49;;;;;;;;;;;12.90;99.90;;;;;;2618690;54;19947;-69
2022/11/03 11:42:19;;;;;;;;;;;12.90;99.90;;;;;;2618545;54;19950;-70
2022/11/03 11:44:52;;;;;;;;;;;12.90;99.90;;;;;;2624967;51;20034;-70
2022/11/03 11:47:26;;;;;;;;;;;12.90;99.90;;;;;;2625344;46;19990;-70
2022/11/03 11:50:04;;;;;;;;;;;12.80;99.90;;;;;;2623900;54;20480;-69
2022/11/03 11:52:34;;;;;;;;;;;12.80;99.90;;;;;;2623777;46;20321;-70
2022/11/03 11:55:06;;;;;;;;;;;12.90;99.90;;;;;;2618669;46;20066;-70
2022/11/03 11:57:36;;;;;;;;;;;12.80;99.90;;;;;;2619039;54;19991;-72
2022/11/03 12:00:07;;;;;;;;;;;12.90;99.90;;;;;;2622430;47;19942;-73
2022/11/03 12:02:38;;;;;;;;;;;12.90;99.90;;;;;;2621339;54;19946;-72
2022/11/03 12:05:08;;;;;;;;;;;12.90;99.90;;;;;;2623628;54;19950;-70
2022/11/03 12:07:38;;;;;;;;;;;12.90;99.90;;;;;;2625665;39;20235;-70
2022/11/03 12:10:16;;;;;;;;;;;12.90;99.90;;;;;;2623820;47;19950;-72
2022/11/03 12:12:45;;;;;;;;;;;12.90;99.90;;;;;;2618928;54;19983;-72
2022/11/03 12:15:30;;;;;;;;;;;12.90;99.90;;;;;;2618371;54;19955;-72
2022/11/03 12:17:59;;;;;;;;;;;12.80;99.90;;;;;;2617961;51;20034;-69
2022/11/03 12:20:35;;;;;;;;;;;12.80;99.90;;;;;;2617466;54;19954;-71
2022/11/03 12:23:05;;;;;;;;;;;12.90;99.90;;;;;;2625677;54;20774;-72
2022/11/03 12:25:39;;;;;;;;;;;12.90;99.90;;;;;;2621764;54;19986;-71
2022/11/03 12:28:08;;;;;;;;;;;12.90;99.90;;;;;;2617847;46;19947;-74
2022/11/03 12:30:39;;;;;;;;;;;12.90;99.90;;;;;;2621810;47;19990;-74
2022/11/03 12:33:09;;;;;;;;;;;12.90;99.90;;;;;;2617365;51;20058;-73
2022/11/03 12:35:39;;;;;;;;;;;12.90;99.90;;;;;;2617531;54;20013;-73
2022/11/03 12:38:08;;;;;;;;;;;12.90;99.90;;;;;;2618105;31;20473;-72
2022/11/03 12:40:41;;;;;;;;;;;12.90;99.90;;;;;;2617158;54;20524;-73
2022/11/03 12:43:10;;;;;;;;;;;12.90;99.90;;;;;;2618083;54;19993;-71
2022/11/03 12:45:40;;;;;;;;;;;11.80;99.90;;;;;;2617984;54;19998;-72
2022/11/03 12:48:09;;;;;;;;;;;12.90;99.90;;;;;;2617518;51;20441;-71
2022/11/03 12:50:39;;;;;;;;;;;12.90;99.90;;;;;;2617969;47;20034;-72
2022/11/03 12:53:09;;;;;;;;;;;12.90;99.90;;;;;;2616199;54;19961;-72
2022/11/03 12:55:41;;;;;;;;;;;12.90;99.90;;;;;;2617901;54;19947;-70
2022/11/03 12:58:13;;;;;;;;;;;12.90;99.90;;;;;;2619564;54;19997;-70
2022/11/03 13:00:42;;;;;;;;;;;12.90;99.90;;;;;;2619184;54;19994;-70
2022/11/03 13:03:23;;;;;;;;;;;12.90;99.90;;;;;;2620313;54;19947;-71
2022/11/03 13:05:52;;;;;;;;;;;12.80;99.90;;;;;;2620759;54;20461;-71
2022/11/03 13:08:22;;;;;;;;;;;12.90;99.90;;;;;;2620401;47;20100;-76
2022/11/03 13:10:54;;;;;;;;;;;12.90;99.90;;;;;;2618906;51;20507;-72
2022/11/03 13:13:23;;;;;;;;;;;12.80;99.90;;;;;;2617561;54;19953;-71
2022/11/03 13:15:53;;;;;;;;;;;12.80;99.90;;;;;;2617711;54;20540;-73
2022/11/03 13:18:23;;;;;;;;;;;12.80;99.90;;;;;;2618312;54;20026;-70
2022/11/03 13:20:53;;;;;;;;;;;12.80;99.90;;;;;;2617256;54;19977;-70
2022/11/03 13:23:22;;;;;;;;;;;12.80;99.90;;;;;;2616608;51;19946;-71
2022/11/03 13:25:54;;;;;;;;;;;12.80;99.90;;;;;;2615787;54;20071;-70
2022/11/03 13:28:24;;;;;;;;;;;12.80;99.90;;;;;;2616277;47;19946;-70
2022/11/03 13:30:53;;;;;;;;;;;12.80;99.90;;;;;;2616841;47;20488;-72
2022/11/03 13:33:23;;;;;;;;;;;12.00;99.90;;;;;;2621314;54;19991;-71
2022/11/03 13:35:53;;;;;;;;;;;12.70;99.90;;;;;;2624367;54;19939;-71
2022/11/03 13:38:22;;;;;;;;;;;12.70;99.90;;;;;;2617269;54;19954;-70
2022/11/03 13:40:54;;;;;;;;;;;12.70;99.90;;;;;;2617091;54;20029;-72
2022/11/03 13:43:28;;;;;;;;;;;12.70;99.90;;;;;;2617368;54;19994;-70
2022/11/03 13:46:01;;;;;;;;;;;12.70;99.90;;;;;;2616193;51;19946;-74
2022/11/03 13:48:31;;;;;;;;;;;12.70;99.90;;;;;;2617605;54;19946;-71
2022/11/03 13:51:20;;;;;;;;;;;12.70;99.90;;;;;;2615908;47;19947;-71
2022/11/03 13:53:50;;;;;;;;;;;12.70;99.90;;;;;;2620184;53;19954;-61
2022/11/03 13:56:42;;;;;;;;;;;12.70;99.90;;;;;;2620252;54;19945;-61
2022/11/03 13:59:32;;;;;;;;;;;12.70;99.90;;;;;;2615122;47;19961;-60
2022/11/03 14:02:01;;;;;;;;;;;12.80;99.90;;;;;;2615546;51;20066;-61
2022/11/03 14:04:51;;;;;;;;;;;12.80;99.90;;;;;;2617119;54;19946;-61
2022/11/03 14:07:20;;;;;;;;;;;12.90;99.90;;;;;;2617720;47;19950;-62
2022/11/03 14:09:50;;;;;;;;;;;12.90;99.90;;;;;;2617637;54;19994;-60
2022/11/03 14:12:35;;;;;;;;;;;12.90;99.90;;;;;;2619884;54;19943;-72
2022/11/03 14:15:06;;;;;;;;;;;12.90;99.90;;;;;;2618390;54;20001;-72
2022/11/03 14:17:35;;;;;;;;;;;12.90;99.90;;;;;;2617635;47;19958;-74
2022/11/03 14:20:05;;;;;;;;;;;12.90;99.90;;;;;;2618106;54;19989;-74
2022/11/03 14:22:35;;;;;;;;;;;12.90;99.90;;;;;;2619997;47;19947;-74
2022/11/03 14:25:04;;;;;;;;;;;12.90;99.90;;;;;;2622857;47;19955;-72
2022/11/03 14:27:37;;;;;;;;;;;12.90;99.90;;;;;;2621903;54;19954;-72
2022/11/03 14:30:07;;;;;;;;;;;12.90;99.90;;;;;;2623527;54;19935;-74
2022/11/03 14:32:36;;;;;;;;;;;12.90;99.90;;;;;;2622879;50;20323;-74
2022/11/03 14:35:06;;;;;;;;;;;12.90;99.90;;;;;;2622554;54;19943;-73
2022/11/03 14:37:36;;;;;;;;;;;12.90;99.90;;;;;;2619370;54;19946;-73
2022/11/03 14:40:06;;;;;;;;;;;12.90;99.90;;;;;;2622403;48;19946;-70
2022/11/03 14:42:36;;;;;;;;;;;12.90;99.90;;;;;;2624530;47;19950;-71
2022/11/03 14:45:06;;;;;;;;;;;12.90;99.90;;;;;;2624389;54;19954;-70
2022/11/03 14:47:35;;;;;;;;;;;12.90;99.90;;;;;;2624085;54;19954;-72
2022/11/03 14:50:05;;;;;;;;;;;12.90;99.90;;;;;;2618821;54;19946;-72
2022/11/03 14:52:35;;;;;;;;;;;12.90;99.90;;;;;;2617427;54;20466;-75
2022/11/03 14:55:04;;;;;;;;;;;12.90;99.90;;;;;;2616206;54;20062;-70
2022/11/03 14:57:34;;;;;;;;;;;12.90;99.90;;;;;;2618030;51;20062;-71
2022/11/03 15:00:06;;;;;;;;;;;12.90;99.90;;;;;;2617763;47;19959;-71
2022/11/03 15:02:37;;;;;;;;;;;12.90;99.90;;;;;;2618272;54;20565;-71
2022/11/03 15:05:42;;;;;;;;;;;13.00;99.90;;;;;;2616510;54;19938;-70